sensor_id;sensor_type;location;lat;lon;timestamp;P1;durP1;ratioP1;P2;durP2;ratioP2
55346;SDS011;41218;55.700;38.270;2023-05-23T00:00:27;47.77;;;24.87;;
55346;SDS011;41218;55.700;38.270;2023-05-23T00:05:28;40.33;;;21.10;;
55346;SDS011;41218;55.700;38.270;2023-05-23T00:10:28;35.27;;;19.37;;
55346;SDS011;41218;55.700;38.270;2023-05-23T00:15:28;31.60;;;17.10;;
55346;SDS011;41218;55.700;38.270;2023-05-23T00:20:30;28.45;;;15.82;;
55346;SDS011;41218;55.700;38.270;2023-05-23T00:25:31;27.95;;;15.15;;
55346;SDS011;41218;55.700;38.270;2023-05-23T00:30:35;27.60;;;14.15;;
55346;SDS011;41218;55.700;38.270;2023-05-23T00:35:36;22.50;;;13.43;;
55346;SDS011;41218;55.700;38.270;2023-05-23T00:40:36;20.90;;;12.47;;
55346;SDS011;41218;55.700;38.270;2023-05-23T00:45:37;22.60;;;11.55;;
55346;SDS011;41218;55.700;38.270;2023-05-23T00:50:37;17.00;;;10.40;;
55346;SDS011;41218;55.700;38.270;2023-05-23T00:55:38;20.13;;;10.70;;
55346;SDS011;41218;55.700;38.270;2023-05-23T01:00:39;15.60;;;10.07;;
55346;SDS011;41218;55.700;38.270;2023-05-23T01:05:41;15.90;;;8.77;;
55346;SDS011;41218;55.700;38.270;2023-05-23T01:10:41;14.87;;;9.03;;
55346;SDS011;41218;55.700;38.270;2023-05-23T01:15:57;14.93;;;9.00;;
55346;SDS011;41218;55.700;38.270;2023-05-23T01:21:10;13.75;;;8.57;;
55346;SDS011;41218;55.700;38.270;2023-05-23T01:26:30;13.48;;;8.48;;
55346;SDS011;41218;55.700;38.270;2023-05-23T01:31:36;18.58;;;8.90;;
55346;SDS011;41218;55.700;38.270;2023-05-23T01:36:42;15.23;;;8.65;;
55346;SDS011;41218;55.700;38.270;2023-05-23T01:41:43;15.15;;;8.20;;
55346;SDS011;41218;55.700;38.270;2023-05-23T01:46:46;14.88;;;8.50;;
55346;SDS011;41218;55.700;38.270;2023-05-23T01:56:48;12.03;;;7.90;;
55346;SDS011;41218;55.700;38.270;2023-05-23T02:01:50;13.75;;;7.80;;
55346;SDS011;41218;55.700;38.270;2023-05-23T02:06:50;13.87;;;8.43;;
55346;SDS011;41218;55.700;38.270;2023-05-23T02:11:51;12.23;;;7.73;;
55346;SDS011;41218;55.700;38.270;2023-05-23T02:16:52;13.88;;;7.70;;
55346;SDS011;41218;55.700;38.270;2023-05-23T02:21:52;13.13;;;8.40;;
55346;SDS011;41218;55.700;38.270;2023-05-23T02:26:53;11.03;;;7.57;;
55346;SDS011;41218;55.700;38.270;2023-05-23T02:31:53;12.97;;;8.33;;
55346;SDS011;41218;55.700;38.270;2023-05-23T02:36:54;12.80;;;7.53;;
55346;SDS011;41218;55.700;38.270;2023-05-23T02:41:55;11.65;;;7.35;;
55346;SDS011;41218;55.700;38.270;2023-05-23T02:46:55;14.27;;;7.67;;
55346;SDS011;41218;55.700;38.270;2023-05-23T02:51:56;15.65;;;7.63;;
55346;SDS011;41218;55.700;38.270;2023-05-23T02:56:56;11.20;;;7.63;;
55346;SDS011;41218;55.700;38.270;2023-05-23T03:01:57;11.63;;;7.57;;
55346;SDS011;41218;55.700;38.270;2023-05-23T03:06:58;11.10;;;6.90;;
55346;SDS011;41218;55.700;38.270;2023-05-23T03:11:58;10.55;;;7.15;;
55346;SDS011;41218;55.700;38.270;2023-05-23T03:22:02;11.93;;;6.95;;
55346;SDS011;41218;55.700;38.270;2023-05-23T03:27:03;11.45;;;7.88;;
55346;SDS011;41218;55.700;38.270;2023-05-23T03:32:04;11.63;;;7.30;;
55346;SDS011;41218;55.700;38.270;2023-05-23T03:37:05;11.88;;;7.28;;
55346;SDS011;41218;55.700;38.270;2023-05-23T03:42:06;15.40;;;7.70;;
55346;SDS011;41218;55.700;38.270;2023-05-23T03:47:06;12.73;;;7.47;;
55346;SDS011;41218;55.700;38.270;2023-05-23T03:52:07;10.47;;;7.40;;
55346;SDS011;41218;55.700;38.270;2023-05-23T03:57:07;10.60;;;7.67;;
55346;SDS011;41218;55.700;38.270;2023-05-23T04:02:08;9.47;;;7.03;;
55346;SDS011;41218;55.700;38.270;2023-05-23T04:07:08;12.37;;;6.83;;
55346;SDS011;41218;55.700;38.270;2023-05-23T04:12:10;10.77;;;7.05;;
55346;SDS011;41218;55.700;38.270;2023-05-23T04:17:11;14.45;;;7.55;;
55346;SDS011;41218;55.700;38.270;2023-05-23T04:22:11;13.27;;;7.40;;
55346;SDS011;41218;55.700;38.270;2023-05-23T04:27:12;11.47;;;7.40;;
55346;SDS011;41218;55.700;38.270;2023-05-23T04:32:12;13.93;;;6.90;;
55346;SDS011;41218;55.700;38.270;2023-05-23T04:37:13;14.10;;;7.20;;
55346;SDS011;41218;55.700;38.270;2023-05-23T04:42:14;10.13;;;6.97;;
55346;SDS011;41218;55.700;38.270;2023-05-23T04:47:15;9.73;;;6.80;;
55346;SDS011;41218;55.700;38.270;2023-05-23T04:52:15;10.10;;;6.90;;
55346;SDS011;41218;55.700;38.270;2023-05-23T04:57:18;8.30;;;6.22;;
55346;SDS011;41218;55.700;38.270;2023-05-23T05:02:18;9.75;;;6.90;;
55346;SDS011;41218;55.700;38.270;2023-05-23T05:07:19;14.37;;;6.57;;
55346;SDS011;41218;55.700;38.270;2023-05-23T05:12:19;9.75;;;6.53;;
55346;SDS011;41218;55.700;38.270;2023-05-23T05:17:20;9.50;;;6.40;;
55346;SDS011;41218;55.700;38.270;2023-05-23T05:22:21;8.90;;;5.68;;
55346;SDS011;41218;55.700;38.270;2023-05-23T05:27:22;12.15;;;6.60;;
55346;SDS011;41218;55.700;38.270;2023-05-23T05:32:22;8.07;;;6.15;;
55346;SDS011;41218;55.700;38.270;2023-05-23T05:37:23;9.10;;;5.97;;
55346;SDS011;41218;55.700;38.270;2023-05-23T05:42:24;9.40;;;5.27;;
55346;SDS011;41218;55.700;38.270;2023-05-23T05:47:24;9.70;;;5.20;;
55346;SDS011;41218;55.700;38.270;2023-05-23T05:52:25;7.95;;;5.78;;
55346;SDS011;41218;55.700;38.270;2023-05-23T05:57:25;7.25;;;5.32;;
55346;SDS011;41218;55.700;38.270;2023-05-23T06:02:26;9.60;;;5.50;;
55346;SDS011;41218;55.700;38.270;2023-05-23T06:07:26;10.83;;;5.57;;
55346;SDS011;41218;55.700;38.270;2023-05-23T06:12:27;9.67;;;5.40;;
55346;SDS011;41218;55.700;38.270;2023-05-23T06:17:27;7.00;;;4.87;;
55346;SDS011;41218;55.700;38.270;2023-05-23T06:22:28;6.22;;;4.65;;
55346;SDS011;41218;55.700;38.270;2023-05-23T06:27:28;8.30;;;5.30;;
55346;SDS011;41218;55.700;38.270;2023-05-23T06:32:29;7.25;;;5.60;;
55346;SDS011;41218;55.700;38.270;2023-05-23T06:37:29;7.95;;;5.72;;
55346;SDS011;41218;55.700;38.270;2023-05-23T06:42:30;8.07;;;5.47;;
55346;SDS011;41218;55.700;38.270;2023-05-23T06:47:30;9.73;;;5.55;;
55346;SDS011;41218;55.700;38.270;2023-05-23T06:52:31;11.10;;;5.60;;
55346;SDS011;41218;55.700;38.270;2023-05-23T06:57:31;8.23;;;5.25;;
55346;SDS011;41218;55.700;38.270;2023-05-23T07:02:32;6.70;;;5.00;;
55346;SDS011;41218;55.700;38.270;2023-05-23T07:12:33;7.97;;;5.00;;
55346;SDS011;41218;55.700;38.270;2023-05-23T07:22:35;7.13;;;4.90;;
55346;SDS011;41218;55.700;38.270;2023-05-23T07:32:36;6.60;;;4.90;;
55346;SDS011;41218;55.700;38.270;2023-05-23T07:42:37;7.87;;;4.40;;
55346;SDS011;41218;55.700;38.270;2023-05-23T07:52:37;8.00;;;4.30;;
55346;SDS011;41218;55.700;38.270;2023-05-23T07:57:38;5.55;;;4.15;;
55346;SDS011;41218;55.700;38.270;2023-05-23T08:07:39;5.63;;;3.70;;
55346;SDS011;41218;55.700;38.270;2023-05-23T08:17:40;6.90;;;4.00;;
55346;SDS011;41218;55.700;38.270;2023-05-23T08:27:41;6.20;;;3.80;;
55346;SDS011;41218;55.700;38.270;2023-05-23T08:37:42;6.43;;;3.90;;
55346;SDS011;41218;55.700;38.270;2023-05-23T08:42:45;7.60;;;4.15;;
55346;SDS011;41218;55.700;38.270;2023-05-23T08:47:47;5.03;;;3.85;;
55346;SDS011;41218;55.700;38.270;2023-05-23T08:52:54;9.50;;;4.40;;
55346;SDS011;41218;55.700;38.270;2023-05-23T08:57:56;6.90;;;4.10;;
55346;SDS011;41218;55.700;38.270;2023-05-23T09:03:00;5.22;;;4.20;;
55346;SDS011;41218;55.700;38.270;2023-05-23T09:13:02;5.37;;;4.33;;
55346;SDS011;41218;55.700;38.270;2023-05-23T09:18:03;6.38;;;3.88;;
55346;SDS011;41218;55.700;38.270;2023-05-23T09:28:05;6.75;;;4.07;;
55346;SDS011;41218;55.700;38.270;2023-05-23T09:38:06;9.02;;;4.15;;
55346;SDS011;41218;55.700;38.270;2023-05-23T09:48:10;5.70;;;4.00;;
55346;SDS011;41218;55.700;38.270;2023-05-23T09:53:12;8.05;;;4.25;;
55346;SDS011;41218;55.700;38.270;2023-05-23T10:03:14;6.35;;;4.18;;
55346;SDS011;41218;55.700;38.270;2023-05-23T10:08:26;5.60;;;4.28;;
55346;SDS011;41218;55.700;38.270;2023-05-23T10:13:33;5.70;;;4.50;;
55346;SDS011;41218;55.700;38.270;2023-05-23T10:18:38;7.25;;;4.30;;
55346;SDS011;41218;55.700;38.270;2023-05-23T10:23:42;6.22;;;4.05;;
55346;SDS011;41218;55.700;38.270;2023-05-23T10:28:46;6.72;;;4.90;;
55346;SDS011;41218;55.700;38.270;2023-05-23T10:33:51;8.90;;;4.70;;
55346;SDS011;41218;55.700;38.270;2023-05-23T10:38:59;6.35;;;4.97;;
55346;SDS011;41218;55.700;38.270;2023-05-23T10:49:20;10.15;;;4.95;;
55346;SDS011;41218;55.700;38.270;2023-05-23T10:54:21;5.85;;;4.88;;
55346;SDS011;41218;55.700;38.270;2023-05-23T11:04:27;7.55;;;5.15;;
55346;SDS011;41218;55.700;38.270;2023-05-23T11:09:28;7.07;;;5.20;;
55346;SDS011;41218;55.700;38.270;2023-05-23T11:19:33;7.07;;;4.88;;
55346;SDS011;41218;55.700;38.270;2023-05-23T11:30:02;5.68;;;4.20;;
55346;SDS011;41218;55.700;38.270;2023-05-23T11:35:08;6.95;;;4.18;;
55346;SDS011;41218;55.700;38.270;2023-05-23T11:45:26;6.97;;;4.15;;
55346;SDS011;41218;55.700;38.270;2023-05-23T11:50:31;7.05;;;3.97;;
55346;SDS011;41218;55.700;38.270;2023-05-23T11:55:32;5.63;;;4.10;;
55346;SDS011;41218;55.700;38.270;2023-05-23T12:00:41;5.65;;;4.28;;
55346;SDS011;41218;55.700;38.270;2023-05-23T12:05:43;5.35;;;3.90;;
55346;SDS011;41218;55.700;38.270;2023-05-23T12:10:48;5.82;;;3.42;;
55346;SDS011;41218;55.700;38.270;2023-05-23T12:15:54;5.07;;;3.60;;
55346;SDS011;41218;55.700;38.270;2023-05-23T12:20:58;5.22;;;3.75;;
55346;SDS011;41218;55.700;38.270;2023-05-23T12:26:03;4.60;;;3.60;;
55346;SDS011;41218;55.700;38.270;2023-05-23T12:31:09;5.65;;;4.22;;
55346;SDS011;41218;55.700;38.270;2023-05-23T12:36:11;6.53;;;4.13;;
55346;SDS011;41218;55.700;38.270;2023-05-23T12:41:15;5.57;;;4.00;;
55346;SDS011;41218;55.700;38.270;2023-05-23T12:46:27;7.20;;;4.45;;
55346;SDS011;41218;55.700;38.270;2023-05-23T12:51:28;5.65;;;4.20;;
55346;SDS011;41218;55.700;38.270;2023-05-23T12:56:28;6.57;;;4.50;;
55346;SDS011;41218;55.700;38.270;2023-05-23T13:01:29;6.75;;;4.70;;
55346;SDS011;41218;55.700;38.270;2023-05-23T13:06:30;6.45;;;4.82;;
55346;SDS011;41218;55.700;38.270;2023-05-23T13:11:32;7.60;;;5.50;;
55346;SDS011;41218;55.700;38.270;2023-05-23T13:16:32;8.25;;;6.38;;
55346;SDS011;41218;55.700;38.270;2023-05-23T13:21:35;9.88;;;6.60;;
55346;SDS011;41218;55.700;38.270;2023-05-23T13:26:35;11.75;;;7.80;;
55346;SDS011;41218;55.700;38.270;2023-05-23T13:31:36;12.05;;;8.02;;
55346;SDS011;41218;55.700;38.270;2023-05-23T13:36:38;10.63;;;7.72;;
55346;SDS011;41218;55.700;38.270;2023-05-23T13:41:38;12.20;;;7.22;;
55346;SDS011;41218;55.700;38.270;2023-05-23T13:46:39;10.50;;;7.55;;
55346;SDS011;41218;55.700;38.270;2023-05-23T13:51:39;9.48;;;6.55;;
55346;SDS011;41218;55.700;38.270;2023-05-23T13:56:42;9.95;;;7.35;;
55346;SDS011;41218;55.700;38.270;2023-05-23T14:01:42;11.85;;;7.22;;
55346;SDS011;41218;55.700;38.270;2023-05-23T14:06:43;10.13;;;6.22;;
55346;SDS011;41218;55.700;38.270;2023-05-23T14:11:44;11.18;;;6.75;;
55346;SDS011;41218;55.700;38.270;2023-05-23T14:16:44;10.82;;;6.90;;
55346;SDS011;41218;55.700;38.270;2023-05-23T14:21:45;8.82;;;5.68;;
55346;SDS011;41218;55.700;38.270;2023-05-23T14:26:45;7.57;;;5.40;;
55346;SDS011;41218;55.700;38.270;2023-05-23T14:31:46;8.25;;;5.40;;
55346;SDS011;41218;55.700;38.270;2023-05-23T14:36:46;10.55;;;5.70;;
55346;SDS011;41218;55.700;38.270;2023-05-23T14:41:47;8.45;;;5.40;;
55346;SDS011;41218;55.700;38.270;2023-05-23T14:46:48;11.32;;;5.43;;
55346;SDS011;41218;55.700;38.270;2023-05-23T14:51:49;9.40;;;5.45;;
55346;SDS011;41218;55.700;38.270;2023-05-23T14:56:49;10.35;;;5.75;;
55346;SDS011;41218;55.700;38.270;2023-05-23T15:01:50;9.80;;;5.85;;
55346;SDS011;41218;55.700;38.270;2023-05-23T15:06:51;9.05;;;5.45;;
55346;SDS011;41218;55.700;38.270;2023-05-23T15:11:51;8.48;;;5.65;;
55346;SDS011;41218;55.700;38.270;2023-05-23T15:16:52;6.90;;;5.28;;
55346;SDS011;41218;55.700;38.270;2023-05-23T15:21:52;9.45;;;5.45;;
55346;SDS011;41218;55.700;38.270;2023-05-23T15:26:53;10.15;;;5.32;;
55346;SDS011;41218;55.700;38.270;2023-05-23T15:31:53;9.52;;;5.10;;
55346;SDS011;41218;55.700;38.270;2023-05-23T15:36:54;8.48;;;5.40;;
55346;SDS011;41218;55.700;38.270;2023-05-23T15:41:55;9.90;;;5.10;;
55346;SDS011;41218;55.700;38.270;2023-05-23T15:46:56;10.02;;;5.28;;
55346;SDS011;41218;55.700;38.270;2023-05-23T15:51:56;8.15;;;5.45;;
55346;SDS011;41218;55.700;38.270;2023-05-23T15:56:57;9.25;;;5.35;;
55346;SDS011;41218;55.700;38.270;2023-05-23T16:01:57;8.93;;;5.43;;
55346;SDS011;41218;55.700;38.270;2023-05-23T16:06:58;8.95;;;5.30;;
55346;SDS011;41218;55.700;38.270;2023-05-23T16:11:58;10.40;;;5.45;;
55346;SDS011;41218;55.700;38.270;2023-05-23T16:16:59;11.15;;;5.32;;
55346;SDS011;41218;55.700;38.270;2023-05-23T16:22:04;10.50;;;5.60;;
55346;SDS011;41218;55.700;38.270;2023-05-23T16:27:05;7.15;;;5.20;;
55346;SDS011;41218;55.700;38.270;2023-05-23T16:32:06;8.90;;;5.20;;
55346;SDS011;41218;55.700;38.270;2023-05-23T16:37:06;7.88;;;5.28;;
55346;SDS011;41218;55.700;38.270;2023-05-23T16:42:07;9.75;;;5.13;;
55346;SDS011;41218;55.700;38.270;2023-05-23T16:47:07;7.53;;;5.32;;
55346;SDS011;41218;55.700;38.270;2023-05-23T16:52:08;8.18;;;5.35;;
55346;SDS011;41218;55.700;38.270;2023-05-23T16:57:09;8.48;;;5.60;;
55346;SDS011;41218;55.700;38.270;2023-05-23T17:02:10;7.47;;;5.25;;
55346;SDS011;41218;55.700;38.270;2023-05-23T17:07:13;9.88;;;5.63;;
55346;SDS011;41218;55.700;38.270;2023-05-23T17:12:14;9.70;;;5.38;;
55346;SDS011;41218;55.700;38.270;2023-05-23T17:17:15;8.60;;;5.45;;
55346;SDS011;41218;55.700;38.270;2023-05-23T17:22:15;5.97;;;5.03;;
55346;SDS011;41218;55.700;38.270;2023-05-23T17:27:16;9.23;;;6.00;;
55346;SDS011;41218;55.700;38.270;2023-05-23T17:32:16;9.85;;;6.25;;
55346;SDS011;41218;55.700;38.270;2023-05-23T17:37:19;11.07;;;6.57;;
55346;SDS011;41218;55.700;38.270;2023-05-23T17:42:19;11.30;;;5.75;;
55346;SDS011;41218;55.700;38.270;2023-05-23T17:47:20;9.85;;;6.05;;
55346;SDS011;41218;55.700;38.270;2023-05-23T17:52:21;9.10;;;5.90;;
55346;SDS011;41218;55.700;38.270;2023-05-23T17:57:21;8.32;;;5.70;;
55346;SDS011;41218;55.700;38.270;2023-05-23T18:02:22;13.40;;;7.00;;
55346;SDS011;41218;55.700;38.270;2023-05-23T18:07:22;13.10;;;6.93;;
55346;SDS011;41218;55.700;38.270;2023-05-23T18:12:23;13.18;;;6.47;;
55346;SDS011;41218;55.700;38.270;2023-05-23T18:17:24;11.38;;;6.78;;
55346;SDS011;41218;55.700;38.270;2023-05-23T18:22:25;10.48;;;6.82;;
55346;SDS011;41218;55.700;38.270;2023-05-23T18:27:26;8.57;;;6.55;;
55346;SDS011;41218;55.700;38.270;2023-05-23T18:32:27;11.80;;;7.57;;
55346;SDS011;41218;55.700;38.270;2023-05-23T18:37:28;13.60;;;6.80;;
55346;SDS011;41218;55.700;38.270;2023-05-23T18:47:30;9.43;;;6.72;;
55346;SDS011;41218;55.700;38.270;2023-05-23T18:52:31;11.63;;;7.45;;
55346;SDS011;41218;55.700;38.270;2023-05-23T18:57:36;10.57;;;6.93;;
55346;SDS011;41218;55.700;38.270;2023-05-23T19:07:42;12.07;;;6.88;;
55346;SDS011;41218;55.700;38.270;2023-05-23T19:17:43;12.87;;;7.30;;
55346;SDS011;41218;55.700;38.270;2023-05-23T19:27:47;11.32;;;6.70;;
55346;SDS011;41218;55.700;38.270;2023-05-23T19:37:48;8.80;;;6.30;;
55346;SDS011;41218;55.700;38.270;2023-05-23T19:47:49;9.10;;;5.67;;
55346;SDS011;41218;55.700;38.270;2023-05-23T19:57:50;10.13;;;6.33;;
55346;SDS011;41218;55.700;38.270;2023-05-23T20:07:51;12.50;;;6.53;;
55346;SDS011;41218;55.700;38.270;2023-05-23T20:17:52;8.50;;;6.37;;
55346;SDS011;41218;55.700;38.270;2023-05-23T20:27:53;13.77;;;6.87;;
55346;SDS011;41218;55.700;38.270;2023-05-23T20:32:55;15.50;;;6.20;;
55346;SDS011;41218;55.700;38.270;2023-05-23T20:42:57;10.85;;;6.55;;
55346;SDS011;41218;55.700;38.270;2023-05-23T20:48:03;9.90;;;5.75;;
55346;SDS011;41218;55.700;38.270;2023-05-23T20:58:05;7.32;;;5.95;;
55346;SDS011;41218;55.700;38.270;2023-05-23T21:08:06;8.23;;;5.40;;
55346;SDS011;41218;55.700;38.270;2023-05-23T21:13:08;8.85;;;5.18;;
55346;SDS011;41218;55.700;38.270;2023-05-23T21:23:09;10.00;;;5.70;;
55346;SDS011;41218;55.700;38.270;2023-05-23T21:33:09;7.63;;;5.10;;
55346;SDS011;41218;55.700;38.270;2023-05-23T21:43:11;8.87;;;5.30;;
55346;SDS011;41218;55.700;38.270;2023-05-23T21:48:11;8.57;;;5.60;;
55346;SDS011;41218;55.700;38.270;2023-05-23T21:53:12;7.18;;;5.20;;
55346;SDS011;41218;55.700;38.270;2023-05-23T21:58:13;8.57;;;5.65;;
55346;SDS011;41218;55.700;38.270;2023-05-23T22:03:15;8.57;;;5.15;;
55346;SDS011;41218;55.700;38.270;2023-05-23T22:13:15;7.37;;;5.57;;
55346;SDS011;41218;55.700;38.270;2023-05-23T22:23:17;8.67;;;5.20;;
55346;SDS011;41218;55.700;38.270;2023-05-23T22:28:17;8.50;;;4.88;;
55346;SDS011;41218;55.700;38.270;2023-05-23T22:38:19;7.23;;;5.10;;
55346;SDS011;41218;55.700;38.270;2023-05-23T22:43:20;10.00;;;4.95;;
55346;SDS011;41218;55.700;38.270;2023-05-23T22:53:21;11.03;;;5.30;;
55346;SDS011;41218;55.700;38.270;2023-05-23T22:58:21;7.95;;;4.63;;
55346;SDS011;41218;55.700;38.270;2023-05-23T23:03:22;6.95;;;4.90;;
55346;SDS011;41218;55.700;38.270;2023-05-23T23:13:23;5.63;;;4.70;;
55346;SDS011;41218;55.700;38.270;2023-05-23T23:18:24;5.80;;;4.40;;
55346;SDS011;41218;55.700;38.270;2023-05-23T23:23:25;7.68;;;4.85;;
55346;SDS011;41218;55.700;38.270;2023-05-23T23:33:26;7.25;;;4.40;;
55346;SDS011;41218;55.700;38.270;2023-05-23T23:38:27;7.28;;;4.65;;
55346;SDS011;41218;55.700;38.270;2023-05-23T23:48:29;7.70;;;4.15;;
55346;SDS011;41218;55.700;38.270;2023-05-23T23:53:30;12.38;;;4.30;;
